createdAt,value
2018-01-17T00:00:51.624Z,79.10
2018-01-17T00:03:19.122Z,83.90
2018-01-17T00:05:47.372Z,79.70
2018-01-17T00:08:15.236Z,80.70
2018-01-17T00:10:43.869Z,81.50
2018-01-17T00:13:11.341Z,81.50
2018-01-17T00:15:39.546Z,80.80
2018-01-17T00:18:07.087Z,80.60
2018-01-17T00:20:34.579Z,81.00
2018-01-17T00:23:02.021Z,82.30
2018-01-17T00:25:29.477Z,82.60
2018-01-17T00:27:56.926Z,82.10
2018-01-17T00:30:24.371Z,81.70
2018-01-17T00:32:51.831Z,82.40
2018-01-17T00:35:19.283Z,82.10
2018-01-17T00:37:46.733Z,82.30
2018-01-17T00:40:14.183Z,82.20
2018-01-17T00:42:42.399Z,82.80
2018-01-17T00:45:09.837Z,81.90
2018-01-17T00:47:37.279Z,81.80
2018-01-17T00:50:04.722Z,81.70
2018-01-17T00:52:32.176Z,81.00
2018-01-17T00:55:00.387Z,81.40
2018-01-17T00:57:27.838Z,80.60
2018-01-17T00:59:55.274Z,79.60
2018-01-17T01:02:22.715Z,93.70
2018-01-17T01:04:50.931Z,79.60
2018-01-17T01:07:18.388Z,78.90
2018-01-17T01:09:46.231Z,79.30
2018-01-17T01:12:13.682Z,88.30
2018-01-17T01:14:41.139Z,80.60
2018-01-17T01:17:08.594Z,80.50
2018-01-17T01:19:36.041Z,80.40
2018-01-17T01:22:04.242Z,81.40
2018-01-17T01:24:31.713Z,81.30
2018-01-17T01:26:59.926Z,81.80
2018-01-17T01:29:27.385Z,82.50
2018-01-17T01:31:54.874Z,81.40
2018-01-17T01:34:23.120Z,81.00
2018-01-17T01:36:50.602Z,81.00
2018-01-17T01:39:18.824Z,81.10
2018-01-17T01:41:46.857Z,80.90
2018-01-17T01:44:15.105Z,82.00
2018-01-17T01:46:42.585Z,82.00
2018-01-17T01:49:10.842Z,81.30
2018-01-17T01:51:38.314Z,81.20
2018-01-17T01:54:06.550Z,80.00
2018-01-17T01:56:34.033Z,79.90
2018-01-17T01:59:02.273Z,79.70
2018-01-17T02:01:29.770Z,79.10
2018-01-17T02:03:58.005Z,79.70
2018-01-17T02:06:25.486Z,78.90
2018-01-17T02:08:52.957Z,78.50
2018-01-17T02:11:21.208Z,78.90
2018-01-17T02:13:48.691Z,78.50
2018-01-17T02:16:16.939Z,78.20
2018-01-17T02:18:44.425Z,78.10
2018-01-17T02:21:12.634Z,77.20
2018-01-17T02:23:40.079Z,77.10
2018-01-17T02:26:07.534Z,77.40
2018-01-17T02:28:34.990Z,77.30
2018-01-17T02:31:02.456Z,76.30
2018-01-17T02:33:29.920Z,75.80
2018-01-17T02:35:57.358Z,74.80
2018-01-17T02:38:24.798Z,75.50
2018-01-17T02:40:52.256Z,75.70
2018-01-17T02:43:19.694Z,76.50
2018-01-17T02:45:47.905Z,76.80
2018-01-17T02:48:15.357Z,76.60
2018-01-17T02:50:42.811Z,76.10
2018-01-17T02:53:10.254Z,77.00
2018-01-17T02:55:38.458Z,79.40
2018-01-17T02:58:05.916Z,79.20
2018-01-17T03:00:33.383Z,90.50
2018-01-17T03:03:00.848Z,79.90
2018-01-17T03:05:28.282Z,79.70
2018-01-17T03:07:55.730Z,79.70
2018-01-17T03:10:23.180Z,90.50
2018-01-17T03:12:50.617Z,80.40
2018-01-17T03:15:18.827Z,80.70
2018-01-17T03:17:46.270Z,80.70
2018-01-17T03:20:13.718Z,80.50
2018-01-17T03:22:41.165Z,81.30
2018-01-17T03:25:09.377Z,82.40
2018-01-17T03:27:36.816Z,82.30
2018-01-17T03:30:04.270Z,82.70
2018-01-17T03:32:31.704Z,82.30
2018-01-17T03:34:59.923Z,82.00
2018-01-17T03:37:27.367Z,81.80
2018-01-17T03:39:54.802Z,82.30
2018-01-17T03:42:22.248Z,82.70
2018-01-17T03:44:50.452Z,83.70
2018-01-17T03:47:17.912Z,83.70
2018-01-17T03:49:45.359Z,83.80
2018-01-17T03:52:12.811Z,83.60
2018-01-17T03:54:40.257Z,83.00
2018-01-17T03:57:07.711Z,83.40
2018-01-17T03:59:35.159Z,83.50
2018-01-17T04:02:03.370Z,81.10
2018-01-17T04:04:30.819Z,97.40
2018-01-17T04:06:58.255Z,90.70
2018-01-17T04:09:26.106Z,80.60
2018-01-17T04:11:54.318Z,81.00
2018-01-17T04:14:22.152Z,81.00
2018-01-17T04:16:50.423Z,82.00
2018-01-17T04:19:18.623Z,82.20
2018-01-17T04:21:46.094Z,82.10
2018-01-17T04:24:13.543Z,81.90
2018-01-17T04:26:41.001Z,81.10
2018-01-17T04:29:08.436Z,81.40
2018-01-17T04:31:36.653Z,80.90
2018-01-17T04:34:04.096Z,80.80
2018-01-17T04:36:31.539Z,80.80
2018-01-17T04:38:58.984Z,81.60
2018-01-17T04:41:26.435Z,81.50
2018-01-17T04:43:54.629Z,83.00
2018-01-17T04:46:22.068Z,82.90
2018-01-17T04:48:49.505Z,83.60
2018-01-17T04:51:16.968Z,84.20
2018-01-17T04:53:45.180Z,85.80
2018-01-17T04:56:12.631Z,85.70
2018-01-17T04:58:40.073Z,85.90
2018-01-17T05:01:08.465Z,85.30
2018-01-17T05:03:36.676Z,86.10
2018-01-17T05:06:04.111Z,85.80
2018-01-17T05:08:31.549Z,85.80
2018-01-17T05:10:58.987Z,85.10
2018-01-17T05:13:26.451Z,85.10
2018-01-17T05:15:53.900Z,84.60
2018-01-17T05:18:21.400Z,85.30
2018-01-17T05:20:48.838Z,85.20
2018-01-17T05:23:16.297Z,83.90
2018-01-17T05:25:43.731Z,84.40
2018-01-17T05:28:11.179Z,84.60
2018-01-17T05:30:39.381Z,84.90
2018-01-17T05:33:06.832Z,84.60
2018-01-17T05:35:34.266Z,84.60
2018-01-17T05:38:02.488Z,83.50
2018-01-17T05:40:29.923Z,83.30
2018-01-17T05:42:57.368Z,84.30
2018-01-17T05:45:24.817Z,84.50
2018-01-17T05:47:52.273Z,85.00
2018-01-17T05:50:20.467Z,84.50
2018-01-17T05:52:47.914Z,84.50
2018-01-17T05:55:15.370Z,84.30
2018-01-17T05:57:42.824Z,83.80
2018-01-17T06:00:10.267Z,84.30
2018-01-17T06:02:37.722Z,84.30
2018-01-17T06:05:05.940Z,84.20
2018-01-17T06:07:33.379Z,84.10
2018-01-17T06:10:00.839Z,84.20
2018-01-17T06:12:28.275Z,84.20
2018-01-17T06:14:55.731Z,84.10
2018-01-17T06:17:23.162Z,83.60
2018-01-17T06:19:51.373Z,83.00
2018-01-17T06:22:18.809Z,82.80
2018-01-17T06:24:47.016Z,81.10
2018-01-17T06:27:14.470Z,81.10
2018-01-17T06:29:41.918Z,79.80
2018-01-17T06:32:09.360Z,79.70
2018-01-17T06:34:36.816Z,79.60
2018-01-17T06:37:04.313Z,79.30
2018-01-17T06:39:31.772Z,78.70
2018-01-17T06:41:59.989Z,77.90
2018-01-17T06:44:28.197Z,77.90
2018-01-17T06:46:55.643Z,77.90
2018-01-17T06:49:23.074Z,77.50
2018-01-17T06:51:51.294Z,78.10
2018-01-17T06:54:18.750Z,77.50
2018-01-17T06:56:46.203Z,78.20
2018-01-17T06:59:13.656Z,77.80
2018-01-17T07:01:41.104Z,77.70
2018-01-17T07:04:08.550Z,77.40
2018-01-17T07:06:36.004Z,78.10
2018-01-17T07:09:03.459Z,78.00
2018-01-17T07:11:30.902Z,79.10
2018-01-17T07:13:58.350Z,79.10
2018-01-17T07:16:26.559Z,80.70
2018-01-17T07:18:54.007Z,80.60
2018-01-17T07:21:21.460Z,80.50
2018-01-17T07:23:48.895Z,80.20
2018-01-17T07:26:17.110Z,79.00
2018-01-17T07:28:44.551Z,79.00
2018-01-17T07:31:12.010Z,78.00
2018-01-17T07:33:39.447Z,78.50
2018-01-17T07:36:07.674Z,76.50
2018-01-17T07:38:35.113Z,76.40
2018-01-17T07:41:02.574Z,76.50
2018-01-17T07:43:30.032Z,75.70
2018-01-17T07:45:57.485Z,75.60
2018-01-17T07:48:24.936Z,76.00
2018-01-17T07:50:52.374Z,76.10
2018-01-17T07:53:19.802Z,76.00
2018-01-17T07:55:48.021Z,75.30
2018-01-17T07:58:15.464Z,75.20
2018-01-17T08:00:42.911Z,76.70
2018-01-17T08:03:10.349Z,79.20
2018-01-17T08:05:37.793Z,80.00
2018-01-17T08:08:05.229Z,82.00
2018-01-17T08:10:33.448Z,83.20
2018-01-17T08:13:01.649Z,83.80
2018-01-17T08:15:29.095Z,83.70
2018-01-17T08:17:56.523Z,83.40
2018-01-17T08:20:24.749Z,82.50
2018-01-17T08:22:52.194Z,82.30
2018-01-17T08:25:19.980Z,81.20
2018-01-17T08:27:47.435Z,80.90
2018-01-17T08:30:15.641Z,84.30
2018-01-17T08:32:43.088Z,84.20
2018-01-17T08:35:10.531Z,84.60
2018-01-17T08:37:37.977Z,84.60
2018-01-17T08:40:05.406Z,85.50
2018-01-17T08:42:32.854Z,84.90
2018-01-17T08:45:00.287Z,84.20
2018-01-17T08:47:28.503Z,85.20
2018-01-17T08:49:55.948Z,85.10
2018-01-17T08:52:23.399Z,84.50
2018-01-17T08:54:50.841Z,84.90
2018-01-17T08:57:19.070Z,84.40
2018-01-17T08:59:46.503Z,84.20
2018-01-17T09:02:13.953Z,84.40
2018-01-17T09:04:41.392Z,84.10
2018-01-17T09:07:08.846Z,83.40
2018-01-17T09:09:36.275Z,83.10
2018-01-17T09:12:03.729Z,82.50
2018-01-17T09:14:31.175Z,82.30
2018-01-17T09:16:58.624Z,81.80
2018-01-17T09:19:26.062Z,79.70
2018-01-17T09:21:53.523Z,78.30
2018-01-17T09:24:20.960Z,77.50
2018-01-17T09:26:48.409Z,77.60
2018-01-17T09:29:15.840Z,76.30
2018-01-17T09:31:44.054Z,76.00
2018-01-17T09:34:11.487Z,76.00
2018-01-17T09:36:38.941Z,77.20
2018-01-17T09:39:07.162Z,75.80
2018-01-17T09:41:34.623Z,75.80
2018-01-17T09:44:02.058Z,74.30
2018-01-17T09:46:29.507Z,74.10
2018-01-17T09:48:56.951Z,75.00
2018-01-17T09:51:24.399Z,75.00
2018-01-17T09:53:51.852Z,75.40
2018-01-17T09:56:20.061Z,79.50
2018-01-17T09:58:47.499Z,79.40
2018-01-17T10:01:14.952Z,80.30
2018-01-17T10:03:42.391Z,82.10
2018-01-17T10:06:10.600Z,82.70
2018-01-17T10:08:38.032Z,82.60
2018-01-17T10:11:05.485Z,82.20
2018-01-17T10:13:32.966Z,80.40
2018-01-17T10:16:00.405Z,79.50
2018-01-17T10:18:27.851Z,77.00
2018-01-17T10:20:56.043Z,77.40
2018-01-17T10:23:23.492Z,77.20
2018-01-17T10:25:50.931Z,77.10
2018-01-17T10:28:19.143Z,74.70
2018-01-17T10:30:46.600Z,74.70
2018-01-17T10:33:14.055Z,74.60
2018-01-17T10:35:41.491Z,73.90
2018-01-17T10:38:08.949Z,73.30
2018-01-17T10:40:36.379Z,72.40
2018-01-17T10:43:03.948Z,71.40
2018-01-17T10:45:32.203Z,67.10
2018-01-17T10:47:59.648Z,67.10
2018-01-17T10:50:27.091Z,67.90
2018-01-17T10:52:54.567Z,66.00
2018-01-17T10:55:22.756Z,66.30
2018-01-17T10:57:50.962Z,65.10
2018-01-17T11:00:18.407Z,65.80
2018-01-17T11:02:45.851Z,65.50
2018-01-17T11:05:14.059Z,65.70
2018-01-17T11:07:41.514Z,65.60
2018-01-17T11:10:08.950Z,67.30
2018-01-17T11:12:36.399Z,67.40
2018-01-17T11:15:04.604Z,68.10
2018-01-17T11:17:32.054Z,68.10
2018-01-17T11:19:59.490Z,68.50
2018-01-17T11:22:26.939Z,69.40
2018-01-17T11:24:55.148Z,71.40
2018-01-17T11:27:22.596Z,71.30
2018-01-17T11:29:50.035Z,73.30
2018-01-17T11:32:17.482Z,73.90
2018-01-17T11:34:45.693Z,75.60
2018-01-17T11:37:13.137Z,75.40
2018-01-17T11:39:40.582Z,76.40
2018-01-17T11:42:08.024Z,76.70
2018-01-17T11:44:36.219Z,77.60
2018-01-17T11:47:03.667Z,77.40
2018-01-17T11:49:31.102Z,78.70
2018-01-17T11:52:01.210Z,80.80
2018-01-17T11:54:28.647Z,80.10
2018-01-17T11:56:56.149Z,80.40
2018-01-17T11:59:24.355Z,78.60
2018-01-17T12:01:51.791Z,78.60
2018-01-17T12:04:19.227Z,78.40
2018-01-17T12:06:47.433Z,79.00
2018-01-17T12:09:14.872Z,78.90
2018-01-17T12:11:42.361Z,80.50
2018-01-17T12:14:09.804Z,81.70
2018-01-17T12:16:37.240Z,84.30
2018-01-17T12:19:04.704Z,84.40
2018-01-17T12:21:32.134Z,83.90
2018-01-17T12:24:00.355Z,82.20
2018-01-17T12:26:27.801Z,82.00
2018-01-17T12:28:55.253Z,80.00
2018-01-17T12:31:22.688Z,79.40
2018-01-17T12:33:50.902Z,77.60
2018-01-17T12:36:18.340Z,77.40
2018-01-17T12:38:45.788Z,77.30
2018-01-17T12:41:13.242Z,77.20
2018-01-17T12:43:40.683Z,77.50
2018-01-17T12:46:08.127Z,76.80
2018-01-17T12:48:35.567Z,75.30
2018-01-17T12:51:03.008Z,75.10
2018-01-17T12:53:30.450Z,71.20
2018-01-17T12:55:57.889Z,70.60
2018-01-17T12:58:25.332Z,69.80
2018-01-17T13:00:52.774Z,70.40
2018-01-17T13:03:20.223Z,71.20
2018-01-17T13:05:48.446Z,69.50
2018-01-17T13:08:15.879Z,68.60
2018-01-17T13:10:43.316Z,70.10
2018-01-17T13:13:11.556Z,68.70
2018-01-17T13:15:39.748Z,67.90
2018-01-17T13:18:07.190Z,67.80
2018-01-17T13:20:34.625Z,66.90
2018-01-17T13:23:02.078Z,66.30
2018-01-17T13:25:29.523Z,66.20
2018-01-17T13:27:56.973Z,66.30
2018-01-17T13:30:24.415Z,67.40
2018-01-17T13:32:53.537Z,68.50
2018-01-17T13:35:20.960Z,68.40
2018-01-17T13:37:49.182Z,67.90
2018-01-17T13:40:17.367Z,67.60
2018-01-17T13:42:44.828Z,67.60
2018-01-17T13:45:12.279Z,66.50
2018-01-17T13:47:39.728Z,68.50
2018-01-17T13:50:07.183Z,69.80
2018-01-17T13:52:34.630Z,70.60
2018-01-17T13:55:02.081Z,69.20
2018-01-17T13:57:29.532Z,67.70
2018-01-17T13:59:56.974Z,66.20
2018-01-17T14:02:24.422Z,65.80
2018-01-17T14:04:52.621Z,66.00
2018-01-17T14:07:20.306Z,65.90
2018-01-17T14:09:47.746Z,64.70
2018-01-17T14:12:15.995Z,64.20
2018-01-17T14:14:43.443Z,65.90
2018-01-17T14:17:11.695Z,65.00
2018-01-17T14:19:39.104Z,64.90
2018-01-17T14:22:06.560Z,66.10
2018-01-17T14:24:34.746Z,63.90
2018-01-17T14:27:02.175Z,63.80
2018-01-17T14:29:29.632Z,63.90
2018-01-17T14:31:57.060Z,64.10
2018-01-17T14:34:25.289Z,64.60
2018-01-17T14:36:52.725Z,64.40
2018-01-17T14:39:20.167Z,64.30
2018-01-17T14:41:47.632Z,64.80
2018-01-17T14:44:15.081Z,65.10
2018-01-17T14:46:42.514Z,64.90
2018-01-17T14:49:09.974Z,65.10
2018-01-17T14:51:38.183Z,65.00
2018-01-17T14:54:05.644Z,65.00
2018-01-17T14:56:33.071Z,65.40
2018-01-17T14:59:01.284Z,64.70
2018-01-17T15:01:28.723Z,64.70
2018-01-17T15:03:56.171Z,64.00
2018-01-17T15:06:23.612Z,63.70
2018-01-17T15:08:51.829Z,65.20
2018-01-17T15:11:19.261Z,65.10
2018-01-17T15:13:46.699Z,64.70
2018-01-17T15:16:14.905Z,65.50
2018-01-17T15:18:42.366Z,65.50
2018-01-17T15:21:09.795Z,65.20
2018-01-17T15:23:37.245Z,66.10
2018-01-17T15:26:05.440Z,67.30
2018-01-17T15:28:32.889Z,67.30
2018-01-17T15:31:00.333Z,67.00
2018-01-17T15:33:28.572Z,67.80
2018-01-17T15:35:56.011Z,67.80
2018-01-17T15:38:23.471Z,67.40
2018-01-17T15:40:50.929Z,68.30
2018-01-17T15:43:18.396Z,68.20
2018-01-17T15:45:45.830Z,66.60
2018-01-17T15:48:13.274Z,65.30
2018-01-17T15:50:40.720Z,66.00
2018-01-17T15:53:08.304Z,66.50
2018-01-17T15:55:35.751Z,65.70
2018-01-17T15:58:03.186Z,66.10
2018-01-17T16:00:30.650Z,66.60
2018-01-17T16:02:58.112Z,65.00
2018-01-17T16:05:25.583Z,65.10
2018-01-17T16:07:53.033Z,66.60
2018-01-17T16:10:20.481Z,68.10
2018-01-17T16:12:47.920Z,69.30
2018-01-17T16:15:15.356Z,70.70
2018-01-17T16:17:43.582Z,72.00
2018-01-17T16:20:11.027Z,71.90
2018-01-17T16:22:39.303Z,71.10
2018-01-17T16:25:06.753Z,71.80
2018-01-17T16:27:34.217Z,72.40
2018-01-17T16:30:01.655Z,71.70
2018-01-17T16:32:29.108Z,71.70
2018-01-17T16:34:56.554Z,72.50
2018-01-17T16:37:24.771Z,72.20
2018-01-17T16:39:52.203Z,72.20
2018-01-17T16:42:19.643Z,72.70
2018-01-17T16:44:47.873Z,71.80
2018-01-17T16:47:15.303Z,71.70
2018-01-17T16:49:42.753Z,71.60
2018-01-17T16:52:10.201Z,70.90
2018-01-17T16:54:37.642Z,71.00
2018-01-17T16:57:05.863Z,70.10
2018-01-17T16:59:33.319Z,70.10
2018-01-17T17:02:00.773Z,70.30
2018-01-17T17:04:28.223Z,70.00
2018-01-17T17:06:55.678Z,70.30
2018-01-17T17:09:23.174Z,69.40
2018-01-17T17:11:50.582Z,69.70
2018-01-17T17:14:18.020Z,70.20
2018-01-17T17:16:45.468Z,69.20
2018-01-17T17:19:13.675Z,67.80
2018-01-17T17:21:41.132Z,67.80
2018-01-17T17:24:08.564Z,67.50
2018-01-17T17:26:36.007Z,66.70
2018-01-17T17:29:04.234Z,67.20
2018-01-17T17:31:31.696Z,67.00
2018-01-17T17:33:59.132Z,67.60
2018-01-17T17:36:26.579Z,67.30
2018-01-17T17:38:54.029Z,67.30
2018-01-17T17:41:21.459Z,66.80
2018-01-17T17:43:49.737Z,66.60
2018-01-17T17:46:17.935Z,67.50
2018-01-17T17:48:45.390Z,67.80
2018-01-17T17:51:12.829Z,66.50
2018-01-17T17:53:40.276Z,66.20
2018-01-17T17:56:08.475Z,68.30
2018-01-17T17:58:35.935Z,67.40
2018-01-17T18:01:03.368Z,67.10
2018-01-17T18:03:31.633Z,67.40
2018-01-17T18:05:59.014Z,67.30
2018-01-17T18:08:26.720Z,68.00
2018-01-17T18:10:54.158Z,68.10
2018-01-17T18:13:21.688Z,68.60
2018-01-17T18:15:49.144Z,68.70
2018-01-17T18:18:16.594Z,68.10
2018-01-17T18:20:44.051Z,66.90
2018-01-17T18:23:12.257Z,68.00
2018-01-17T18:25:39.703Z,67.90
2018-01-17T18:28:07.140Z,67.00
2018-01-17T18:30:35.347Z,67.50
2018-01-17T18:33:02.799Z,67.30
2018-01-17T18:35:30.260Z,66.80
2018-01-17T18:37:57.707Z,67.10
2018-01-17T18:40:25.168Z,66.80
2018-01-17T18:42:52.610Z,67.20
2018-01-17T18:45:20.059Z,67.10
2018-01-17T18:47:48.318Z,66.80
2018-01-17T18:50:15.711Z,66.80
2018-01-17T18:52:43.159Z,66.30
2018-01-17T18:55:10.607Z,65.90
2018-01-17T18:57:38.055Z,66.50
2018-01-17T19:00:05.491Z,66.30
2018-01-17T19:02:33.708Z,66.80
2018-01-17T19:05:01.154Z,66.80
2018-01-17T19:07:29.352Z,66.00
2018-01-17T19:09:56.814Z,65.90
2018-01-17T19:12:24.264Z,67.20
2018-01-17T19:14:51.705Z,67.10
2018-01-17T19:17:19.169Z,68.30
2018-01-17T19:19:46.602Z,69.30
2018-01-17T19:22:14.043Z,70.30
2018-01-17T19:24:42.268Z,70.90
2018-01-17T19:27:09.718Z,70.80
2018-01-17T19:29:37.171Z,71.60
2018-01-17T19:32:04.615Z,72.40
2018-01-17T19:34:32.068Z,72.40
2018-01-17T19:36:59.561Z,72.80
2018-01-17T19:39:27.001Z,70.80
2018-01-17T19:41:54.435Z,70.90
2018-01-17T19:44:21.933Z,71.20
2018-01-17T19:46:49.363Z,71.50
2018-01-17T19:49:16.864Z,70.80
2018-01-17T19:51:44.344Z,70.40
2018-01-17T19:54:12.534Z,71.00
2018-01-17T19:56:40.029Z,70.60
2018-01-17T19:59:07.456Z,70.10
2018-01-17T20:01:34.906Z,69.20
2018-01-17T20:04:02.348Z,69.80
2018-01-17T20:06:30.607Z,69.40
2018-01-17T20:08:58.033Z,69.40
2018-01-17T20:11:26.399Z,69.60
2018-01-17T20:13:53.847Z,68.90
2018-01-17T20:16:21.319Z,72.10
2018-01-17T20:18:48.806Z,73.40
2018-01-17T20:21:16.247Z,73.60
2018-01-17T20:23:43.711Z,72.60
2018-01-17T20:26:11.152Z,72.70
2018-01-17T20:28:38.597Z,72.00
2018-01-17T20:31:06.062Z,72.00
2018-01-17T20:33:33.512Z,72.10
2018-01-17T20:36:00.958Z,70.60
2018-01-17T20:38:28.441Z,71.60
2018-01-17T20:40:55.883Z,70.40
2018-01-17T20:43:23.328Z,69.80
2018-01-17T20:45:50.776Z,70.20
2018-01-17T20:48:18.258Z,71.10
2018-01-17T20:50:45.695Z,71.00
2018-01-17T20:53:13.395Z,71.10
2018-01-17T20:55:40.877Z,72.60
2018-01-17T20:58:08.306Z,72.40
2018-01-17T21:00:35.799Z,72.00
2018-01-17T21:03:04.000Z,73.00
2018-01-17T21:05:31.448Z,73.00
2018-01-17T21:07:58.934Z,74.20
2018-01-17T21:10:26.372Z,74.60
2018-01-17T21:12:53.820Z,75.80
2018-01-17T21:15:21.385Z,75.70
2018-01-17T21:17:48.822Z,75.50
2018-01-17T21:20:16.566Z,75.80
2018-01-17T21:22:44.007Z,76.10
2018-01-17T21:25:11.741Z,76.50
2018-01-17T21:27:39.254Z,77.00
2018-01-17T21:30:07.499Z,75.90
2018-01-17T21:32:35.746Z,74.60
2018-01-17T21:35:03.186Z,74.50
2018-01-17T21:37:30.646Z,74.70
2018-01-17T21:39:58.086Z,75.10
2018-01-17T21:42:31.281Z,74.60
2018-01-17T21:45:04.467Z,76.30
2018-01-17T21:47:31.908Z,77.50
2018-01-17T21:50:00.161Z,79.00
2018-01-17T21:52:27.596Z,79.00
2018-01-17T21:54:55.090Z,79.50
2018-01-17T21:57:23.295Z,78.80
2018-01-17T21:59:50.799Z,78.70
2018-01-17T22:02:18.224Z,78.20
2018-01-17T22:04:45.714Z,77.70
2018-01-17T22:07:13.277Z,76.90
2018-01-17T22:09:41.543Z,75.70
2018-01-17T22:12:09.094Z,76.90
2018-01-17T22:14:39.108Z,77.30
2018-01-17T22:17:07.397Z,76.00
2018-01-17T22:19:54.458Z,76.90
2018-01-17T22:22:23.812Z,76.30
2018-01-17T22:24:53.239Z,76.60
2018-01-17T22:27:21.933Z,76.30
2018-01-17T22:29:52.734Z,76.70
2018-01-17T22:32:20.630Z,76.60
2018-01-17T22:34:50.227Z,76.90
2018-01-17T22:37:19.425Z,77.70
2018-01-17T22:39:48.881Z,77.10
2018-01-17T22:42:16.424Z,76.10
2018-01-17T22:44:43.903Z,76.50
2018-01-17T22:47:13.089Z,77.50
2018-01-17T22:49:41.965Z,76.50
2018-01-17T22:52:12.516Z,77.50
2018-01-17T22:54:44.178Z,78.80
2018-01-17T22:57:13.460Z,78.90
2018-01-17T22:59:41.069Z,78.60
2018-01-17T23:04:45.269Z,78.10
2018-01-17T23:07:21.429Z,79.10
2018-01-17T23:09:50.816Z,80.20
2018-01-17T23:12:27.184Z,79.90
2018-01-17T23:14:56.969Z,80.40
2018-01-17T23:17:30.965Z,80.40
2018-01-17T23:20:09.047Z,81.20
2018-01-17T23:22:42.242Z,80.50
2018-01-17T23:25:11.534Z,78.90
2018-01-17T23:27:41.159Z,80.80
2018-01-17T23:30:13.250Z,79.80
2018-01-17T23:32:42.973Z,79.40
2018-01-17T23:35:12.574Z,78.70
2018-01-17T23:37:40.432Z,78.30
2018-01-17T23:40:12.468Z,78.00
2018-01-17T23:42:41.953Z,76.80
2018-01-17T23:45:12.277Z,77.60
2018-01-17T23:47:42.105Z,76.40
2018-01-17T23:50:13.386Z,75.80
2018-01-17T23:52:41.653Z,75.10
2018-01-17T23:55:10.428Z,75.80
2018-01-17T23:57:38.597Z,75.60
